NCAR-RAP Real-Time Weather Data

Output produced by METARs form (17 July 2018  04:04 UTC)
found at http://weather.rap.ucar.edu/surface/
 
Conditions at: KGIF observed 17 July 2018  03:53 UTC
Temperature: 26.7°C (80°F)
Dewpoint: 22.8°C (73°F) [RH = 79%]
Pressure (altimeter): 30.11 inches Hg (1019.7 mb)
[Sea-level pressure: 1019.2 mb]
Winds: from the SSE (150 degrees) at 5 MPH (4 knots; 2.1 m/s)
Visibility: 10 or more miles (16+ km)
Ceiling: 7000 feet AGL
Clouds: broken clouds at 7000 feet AGL
Present Weather: automated observation with no human augmentation;
there may or may not be significant weather present at this time
KGIF 170353Z AUTO 15004KT 10SM BKN070 27/23 A3011 RMK AO2 SLP192 T02670228

Conditions at: KGIF observed 17 July 2018  02:53 UTC
Temperature: 26.7°C (80°F)
Dewpoint: 22.8°C (73°F) [RH = 79%]
Pressure (altimeter): 30.11 inches Hg (1019.7 mb)
[Sea-level pressure: 1019.2 mb]
Winds: from the SSE (150 degrees) at 8 MPH (7 knots; 3.6 m/s)
Visibility: 10 or more miles (16+ km)
Ceiling: at least 12,000 feet AGL
Clouds: sky clear below 12,000 feet AGL
Present Weather: automated observation with no human augmentation;
there may or may not be significant weather present at this time
KGIF 170253Z AUTO 15007KT 10SM CLR 27/23 A3011 RMK AO2 SLP192 T02670228 53015

Conditions at: KGIF observed 17 July 2018  01:53 UTC
Temperature: 26.7°C (80°F)
Dewpoint: 23.3°C (74°F) [RH = 82%]
Pressure (altimeter): 30.09 inches Hg (1019.0 mb)
[Sea-level pressure: 1018.7 mb]
Winds: from the SSE (150 degrees) at 3 MPH (3 knots; 1.6 m/s)
Visibility: 10 or more miles (16+ km)
Ceiling: at least 12,000 feet AGL
Clouds: few clouds at 7500 feet AGL
Present Weather: automated observation with no human augmentation;
there may or may not be significant weather present at this time
KGIF 170153Z AUTO 15003KT 10SM FEW075 27/23 A3009 RMK AO2 SLP187 T02670233

Conditions at: KGIF observed 17 July 2018  00:53 UTC
Temperature: 26.7°C (80°F)
Dewpoint: 23.3°C (74°F) [RH = 82%]
Pressure (altimeter): 30.07 inches Hg (1018.4 mb)
[Sea-level pressure: 1018.0 mb]
Winds: calm
Visibility: 10 or more miles (16+ km)
Ceiling: at least 12,000 feet AGL
Clouds: sky clear below 12,000 feet AGL
Present Weather: automated observation with no human augmentation;
there may or may not be significant weather present at this time
KGIF 170053Z AUTO 00000KT 10SM CLR 27/23 A3007 RMK AO2 SLP180 T02670233

Conditions at: KGIF observed 16 July 2018  23:53 UTC
Temperature: 26.7°C (80°F)
Dewpoint: 22.8°C (73°F) [RH = 79%]
Pressure (altimeter): 30.06 inches Hg (1018.0 mb)
[Sea-level pressure: 1017.8 mb]
Winds: from the WSW (240 degrees) at 5 MPH (4 knots; 2.1 m/s)
Visibility: 10 or more miles (16+ km)
Ceiling: at least 12,000 feet AGL
Clouds: sky clear below 12,000 feet AGL
Present Weather: automated observation with no human augmentation;
there may or may not be significant weather present at this time
KGIF 162353Z AUTO 24004KT 10SM CLR 27/23 A3006 RMK AO2 SLP178 60046 T02670228 10311 20250 53006

Conditions at: KGIF observed 16 July 2018  22:53 UTC
Temperature: 27.8°C (82°F)
Dewpoint: 23.3°C (74°F) [RH = 77%]
Pressure (altimeter): 30.05 inches Hg (1017.7 mb)
[Sea-level pressure: 1017.4 mb]
Winds: calm
Visibility: 10 or more miles (16+ km)
Ceiling: at least 12,000 feet AGL
Clouds: scattered clouds at 10000 feet AGL
Present Weather: automated observation with no human augmentation;
there may or may not be significant weather present at this time
KGIF 162253Z AUTO 00000KT 10SM SCT100 28/23 A3005 RMK AO2 LTG DSNT S AND SW SLP174 T02780233

Conditions at: KGIF observed 16 July 2018  22:10 UTC
Temperature: 28.3°C (83°F)
Dewpoint: 22.8°C (73°F) [RH = 72%]
Pressure (altimeter): 30.06 inches Hg (1018.0 mb)
Winds: from the SW (230 degrees) at 3 MPH (3 knots; 1.6 m/s)
Visibility: 10 or more miles (16+ km)
Ceiling: 5000 feet AGL
Clouds: broken clouds at 5000 feet AGL
broken clouds at 7000 feet AGL
Present Weather: VCTS  (thunderstorm in vicinity)
KGIF 162210Z AUTO 23003KT 10SM VCTS BKN050 BKN070 28/23 A3006 RMK AO2 LTG DSNT S AND SW T02830228

Conditions at: KGIF observed 16 July 2018  21:53 UTC
Temperature: 28.3°C (83°F)
Dewpoint: 21.7°C (71°F) [RH = 67%]
Pressure (altimeter): 30.05 inches Hg (1017.7 mb)
[Sea-level pressure: 1017.5 mb]
Winds: calm
Visibility: 10 or more miles (16+ km)
Ceiling: at least 12,000 feet AGL
Clouds: few clouds at 5500 feet AGL
scattered clouds at 7500 feet AGL
Present Weather: automated observation with no human augmentation;
there may or may not be significant weather present at this time
KGIF 162153Z AUTO 00000KT 10SM FEW055 SCT075 28/22 A3005 RMK AO2 LTG DSNT S AND SW SLP175 T02830217

Conditions at: KGIF observed 16 July 2018  20:53 UTC
Temperature: 27.8°C (82°F)
Dewpoint: 22.2°C (72°F) [RH = 72%]
Pressure (altimeter): 30.05 inches Hg (1017.7 mb)
[Sea-level pressure: 1017.2 mb]
Winds: from the N (10 degrees) at 8 MPH (7 knots; 3.6 m/s)
Visibility: 10 or more miles (16+ km)
Ceiling: at least 12,000 feet AGL
Clouds: sky clear below 12,000 feet AGL
Present Weather: automated observation with no human augmentation;
there may or may not be significant weather present at this time
KGIF 162053Z AUTO 01007KT 10SM CLR 28/22 A3005 RMK AO2 LTG DSNT ALQDS SLP172 60046 T02780222 58007

Conditions at: KGIF observed 16 July 2018  19:53 UTC
Temperature: 27.2°C (81°F)
Dewpoint: 23.9°C (75°F) [RH = 82%]
Pressure (altimeter): 30.07 inches Hg (1018.4 mb)
[Sea-level pressure: 1017.9 mb]
Winds: from the NNW (330 degrees) at 9 MPH (8 knots; 4.2 m/s)
Visibility: 10 or more miles (16+ km)
Ceiling: at least 12,000 feet AGL
Clouds: few clouds at 4200 feet AGL
few clouds at 5000 feet AGL
scattered clouds at 9500 feet AGL
Present Weather: automated observation with no human augmentation;
there may or may not be significant weather present at this time
KGIF 161953Z AUTO 33008KT 10SM FEW042 FEW050 SCT095 27/24 A3007 RMK AO2 LTG DSNT ALQDS RAB17E36 SLP179 P0000 T02720239

Conditions at: KGIF observed 16 July 2018  19:44 UTC
Temperature: 27.2°C (81°F)
Dewpoint: 23.9°C (75°F) [RH = 82%]
Pressure (altimeter): 30.06 inches Hg (1018.0 mb)
Winds: from the NNW (330 degrees) at 8 MPH (7 knots; 3.6 m/s)
Visibility: 10 or more miles (16+ km)
Ceiling: 9000 feet AGL
Clouds: scattered clouds at 4200 feet AGL
scattered clouds at 5500 feet AGL
broken clouds at 9000 feet AGL
Present Weather: automated observation with no human augmentation;
there may or may not be significant weather present at this time
KGIF 161944Z AUTO 33007KT 10SM SCT042 SCT055 BKN090 27/24 A3006 RMK AO2 LTG DSNT ALQDS RAB17E36 P0000 T02720239

Conditions at: KGIF observed 16 July 2018  18:53 UTC
Temperature: 27.2°C (81°F)
Dewpoint: 23.3°C (74°F) [RH = 79%]
Pressure (altimeter): 30.07 inches Hg (1018.4 mb)
[Sea-level pressure: 1017.9 mb]
Winds: from the WSW (240 degrees) at 8 MPH (7 knots; 3.6 m/s)
Visibility: 10 or more miles (16+ km)
Ceiling: at least 12,000 feet AGL
Clouds: few clouds at 3500 feet AGL
scattered clouds at 9000 feet AGL
scattered clouds at 11000 feet AGL
Present Weather: VCTS  (thunderstorm in vicinity)
KGIF 161853Z AUTO 24007KT 10SM VCTS FEW035 SCT090 SCT110 27/23 A3007 RMK AO2 PK WND 29031/1809 LTG DSNT W-NE RAB07E41 TSB1759E46 SLP179 P0046 T02720233

Conditions at: KGIF observed 16 July 2018  18:42 UTC
Temperature: 26.7°C (80°F)
Dewpoint: 23.3°C (74°F) [RH = 82%]
Pressure (altimeter): 30.07 inches Hg (1018.4 mb)
Winds: from the WSW (250 degrees) at 6 MPH (5 knots; 2.6 m/s)
Visibility: 10 or more miles (16+ km)
Ceiling: 8000 feet AGL
Clouds: scattered clouds at 2900 feet AGL
broken clouds at 8000 feet AGL
overcast cloud deck at 10000 feet AGL
Present Weather: TS  (thunderstorm)
KGIF 161842Z AUTO 25005KT 10SM TS SCT029 BKN080 OVC100 27/23 A3007 RMK AO2 PK WND 29031/1809 LTG DSNT ALQDS RAB07E41 TSB1759 P0046 T02670233

Conditions at: KGIF observed 16 July 2018  18:35 UTC
Temperature: 26.7°C (80°F)
Dewpoint: 22.8°C (73°F) [RH = 79%]
Pressure (altimeter): 30.09 inches Hg (1019.0 mb)
Winds: from the W (260 degrees) at 9 MPH (8 knots; 4.2 m/s)
gusting to 22 MPH (19 knots; 9.9 m/s)
Visibility: 1.75 miles (2.82 km)
Ceiling: 4800 feet AGL
Clouds: scattered clouds at 2700 feet AGL
broken clouds at 4800 feet AGL
overcast cloud deck at 9000 feet AGL
Present Weather: -TSRA  (light rain associated with thunderstorm(s))
KGIF 161835Z AUTO 26008G19KT 1 3/4SM -TSRA SCT027 BKN048 OVC090 27/23 A3009 RMK AO2 PK WND 29031/1809 LTG DSNT ALQDS RAB07 TSB1759 P0046 T02670228

Conditions at: KGIF observed 16 July 2018  18:33 UTC
Temperature: 26.7°C (80°F)
Dewpoint: 22.2°C (72°F) [RH = 76%]
Pressure (altimeter): 30.09 inches Hg (1019.0 mb)
Winds: from the SW (230 degrees) at 14 MPH (12 knots; 6.2 m/s)
gusting to 22 MPH (19 knots; 9.9 m/s)
Visibility: 1.00 miles (1.61 km)
Ceiling: 2500 feet AGL
Clouds: broken clouds at 2500 feet AGL
broken clouds at 4600 feet AGL
overcast cloud deck at 10000 feet AGL
Present Weather: -TSRA  (light rain associated with thunderstorm(s))
KGIF 161833Z AUTO 23012G19KT 200V270 1SM -TSRA BKN025 BKN046 OVC100 27/22 A3009 RMK AO2 PK WND 29031/1809 LTG DSNT ALQDS RAB07 TSB1759 P0046 T02670222

Conditions at: KGIF observed 16 July 2018  18:15 UTC
Temperature: 26.7°C (80°F)
Dewpoint: 21.1°C (70°F) [RH = 71%]
Pressure (altimeter): 30.09 inches Hg (1019.0 mb)
Winds: from the WNW (300 degrees) at 24 MPH (21 knots; 10.9 m/s)
gusting to 36 MPH (31 knots; 16.1 m/s)
Visibility: 0.75 miles (1.21 km)
Ceiling: 3900 feet AGL
Clouds: scattered clouds at 1500 feet AGL
broken clouds at 3900 feet AGL
overcast cloud deck at 9500 feet AGL
Present Weather: +TSRA  (heavy rain associated with thunderstorm(s))
KGIF 161815Z AUTO 30021G31KT 3/4SM +TSRA SCT015 BKN039 OVC095 27/21 A3009 RMK AO2 PK WND 29031/1809 LTG DSNT N AND SW RAB07 TSB1759 P0018 T02670211

Conditions at: KGIF observed 16 July 2018  18:11 UTC
Temperature: 27.2°C (81°F)
Dewpoint: 22.2°C (72°F) [RH = 74%]
Pressure (altimeter): 30.09 inches Hg (1019.0 mb)
Winds: from the W (270 degrees) at 20 MPH (17 knots; 8.8 m/s)
gusting to 36 MPH (31 knots; 16.1 m/s)
Visibility: 2.50 miles (4.02 km)
Ceiling: 5000 feet AGL
Clouds: few clouds at 800 feet AGL
broken clouds at 5000 feet AGL
overcast cloud deck at 9500 feet AGL
Present Weather: -TSRA  (light rain associated with thunderstorm(s))
KGIF 161811Z AUTO 27017G31KT 210V300 2 1/2SM -TSRA FEW008 BKN050 OVC095 27/22 A3009 RMK AO2 PK WND 29031/1809 LTG DSNT N AND S AND SW RAB07 TSB1759 P0005 T02720222

Conditions at: KGIF observed 16 July 2018  18:05 UTC
Temperature: 30.6°C (87°F)
Dewpoint: 22.2°C (72°F) [RH = 61%]
Pressure (altimeter): 30.09 inches Hg (1019.0 mb)
Winds: from the W (270 degrees) at 10 MPH (9 knots; 4.7 m/s)
Visibility: 10 or more miles (16+ km)
Ceiling: 5000 feet AGL
Clouds: scattered clouds at 4200 feet AGL
broken clouds at 5000 feet AGL
broken clouds at 9500 feet AGL
Present Weather: TS  (thunderstorm)
KGIF 161805Z AUTO 27009KT 10SM TS SCT042 BKN050 BKN095 31/22 A3009 RMK AO2 LTG DSNT N AND S AND SW TSB1759 T03060222

Conditions at: KGIF observed 16 July 2018  17:53 UTC
Temperature: 30.6°C (87°F)
Dewpoint: 22.8°C (73°F) [RH = 63%]
Pressure (altimeter): 30.08 inches Hg (1018.7 mb)
[Sea-level pressure: 1018.4 mb]
Winds: from the NNW (340 degrees) at 7 MPH (6 knots; 3.1 m/s)
Visibility: 10 or more miles (16+ km)
Ceiling: 5000 feet AGL
Clouds: broken clouds at 5000 feet AGL
Present Weather: VCTS  (thunderstorm in vicinity)
KGIF 161753Z AUTO 34006KT 10SM VCTS BKN050 31/23 A3008 RMK AO2 LTG DSNT N AND SW TSB33E53 SLP184 T03060228 10344 20272 58006

Conditions at: KGIF observed 16 July 2018  17:33 UTC
Temperature: 33.3°C (92°F)
Dewpoint: 22.2°C (72°F) [RH = 52%]
Pressure (altimeter): 30.09 inches Hg (1019.0 mb)
Winds: from the NNW (330 degrees) at 12 MPH (10 knots; 5.2 m/s)
gusting to 20 MPH (17 knots; 8.8 m/s)
Visibility: 10 or more miles (16+ km)
Ceiling: at least 12,000 feet AGL
Clouds: few clouds at 4600 feet AGL
few clouds at 6500 feet AGL
Present Weather: TS  (thunderstorm)
KGIF 161733Z AUTO 33010G17KT 10SM TS FEW046 FEW065 33/22 A3009 RMK AO2 LTG DSNT N AND NE TSB33 T03330222

Conditions at: KGIF observed 16 July 2018  16:53 UTC
Temperature: 33.3°C (92°F)
Dewpoint: 21.7°C (71°F) [RH = 51%]
Pressure (altimeter): 30.10 inches Hg (1019.4 mb)
[Sea-level pressure: 1018.8 mb]
Winds: from the SW (220 degrees) at 7 MPH (6 knots; 3.1 m/s)
Visibility: 10 or more miles (16+ km)
Ceiling: at least 12,000 feet AGL
Clouds: scattered clouds at 10000 feet AGL
Present Weather: automated observation with no human augmentation;
there may or may not be significant weather present at this time
KGIF 161653Z AUTO 22006KT 10SM SCT100 33/22 A3010 RMK AO2 LTG DSNT NE SLP188 T03330217

Conditions at: KGIF observed 16 July 2018  15:53 UTC
Temperature: 32.8°C (91°F)
Dewpoint: 22.8°C (73°F) [RH = 56%]
Pressure (altimeter): 30.11 inches Hg (1019.7 mb)
[Sea-level pressure: 1019.2 mb]
Winds: calm
Visibility: 10 or more miles (16+ km)
Ceiling: at least 12,000 feet AGL
Clouds: sky clear below 12,000 feet AGL
Present Weather: automated observation with no human augmentation;
there may or may not be significant weather present at this time
KGIF 161553Z AUTO 00000KT 10SM CLR 33/23 A3011 RMK AO2 SLP192 T03280228

Conditions at: KGIF observed 16 July 2018  14:53 UTC
Temperature: 31.7°C (89°F)
Dewpoint: 23.9°C (75°F) [RH = 63%]
Pressure (altimeter): 30.10 inches Hg (1019.4 mb)
[Sea-level pressure: 1019.1 mb]
Winds: calm
Visibility: 10 or more miles (16+ km)
Ceiling: at least 12,000 feet AGL
Clouds: sky clear below 12,000 feet AGL
Present Weather: automated observation with no human augmentation;
there may or may not be significant weather present at this time
KGIF 161453Z AUTO 00000KT 10SM CLR 32/24 A3010 RMK AO2 SLP191 T03170239 50005

Conditions at: KGIF observed 16 July 2018  13:53 UTC
Temperature: 30.0°C (86°F)
Dewpoint: 23.9°C (75°F) [RH = 70%]
Pressure (altimeter): 30.10 inches Hg (1019.4 mb)
[Sea-level pressure: 1019.2 mb]
Winds: from the S (180 degrees) at 3 MPH (3 knots; 1.6 m/s)
Visibility: 10 or more miles (16+ km)
Ceiling: at least 12,000 feet AGL
Clouds: scattered clouds at 6000 feet AGL
Present Weather: automated observation with no human augmentation;
there may or may not be significant weather present at this time
KGIF 161353Z AUTO 18003KT 10SM SCT060 30/24 A3010 RMK AO2 SLP192 T03000239

Conditions at: KGIF observed 16 July 2018  12:53 UTC
Temperature: 28.9°C (84°F)
Dewpoint: 23.9°C (75°F) [RH = 74%]
Pressure (altimeter): 30.10 inches Hg (1019.4 mb)
[Sea-level pressure: 1018.9 mb]
Winds: from the E (90 degrees) at 3 MPH (3 knots; 1.6 m/s)
Visibility: 10 or more miles (16+ km)
Ceiling: at least 12,000 feet AGL
Clouds: sky clear below 12,000 feet AGL
Present Weather: automated observation with no human augmentation;
there may or may not be significant weather present at this time
KGIF 161253Z AUTO 09003KT 10SM CLR 29/24 A3010 RMK AO2 SLP189 T02890239

Conditions at: KGIF observed 16 July 2018  11:53 UTC
Temperature: 27.2°C (81°F)
Dewpoint: 23.9°C (75°F) [RH = 82%]
Pressure (altimeter): 30.09 inches Hg (1019.0 mb)
[Sea-level pressure: 1018.6 mb]
Winds: from the E (100 degrees) at 3 MPH (3 knots; 1.6 m/s)
Visibility: 10 or more miles (16+ km)
Ceiling: at least 12,000 feet AGL
Clouds: sky clear below 12,000 feet AGL
Present Weather: automated observation with no human augmentation;
there may or may not be significant weather present at this time
KGIF 161153Z AUTO 10003KT 10SM CLR 27/24 A3009 RMK AO2 SLP186 T02720239 10272 20256 53013

Conditions at: KGIF observed 16 July 2018  10:53 UTC
Temperature: 25.6°C (78°F)
Dewpoint: 23.9°C (75°F) [RH = 90%]
Pressure (altimeter): 30.07 inches Hg (1018.4 mb)
[Sea-level pressure: 1018.0 mb]
Winds: from the SE (130 degrees) at 3 MPH (3 knots; 1.6 m/s)
Visibility: 10 or more miles (16+ km)
Ceiling: at least 12,000 feet AGL
Clouds: sky clear below 12,000 feet AGL
Present Weather: automated observation with no human augmentation;
there may or may not be significant weather present at this time
KGIF 161053Z AUTO 13003KT 10SM CLR 26/24 A3007 RMK AO2 SLP180 T02560239

Conditions at: KGIF observed 16 July 2018  09:53 UTC
Temperature: 26.1°C (79°F)
Dewpoint: 23.9°C (75°F) [RH = 88%]
Pressure (altimeter): 30.06 inches Hg (1018.0 mb)
[Sea-level pressure: 1017.5 mb]
Winds: from the ESE (110 degrees) at 5 MPH (4 knots; 2.1 m/s)
Visibility: 10 or more miles (16+ km)
Ceiling: at least 12,000 feet AGL
Clouds: sky clear below 12,000 feet AGL
Present Weather: automated observation with no human augmentation;
there may or may not be significant weather present at this time
KGIF 160953Z AUTO 11004KT 10SM CLR 26/24 A3006 RMK AO2 SLP175 T02610239

Conditions at: KGIF observed 16 July 2018  08:53 UTC
Temperature: 26.1°C (79°F)
Dewpoint: 23.9°C (75°F) [RH = 88%]
Pressure (altimeter): 30.05 inches Hg (1017.7 mb)
[Sea-level pressure: 1017.3 mb]
Winds: from the E (90 degrees) at 3 MPH (3 knots; 1.6 m/s)
Visibility: 10 or more miles (16+ km)
Ceiling: at least 12,000 feet AGL
Clouds: sky clear below 12,000 feet AGL
Present Weather: automated observation with no human augmentation;
there may or may not be significant weather present at this time
KGIF 160853Z AUTO 09003KT 10SM CLR 26/24 A3005 RMK AO2 SLP173 T02610239 56007

Conditions at: KGIF observed 16 July 2018  07:53 UTC
Temperature: 26.7°C (80°F)
Dewpoint: 23.3°C (74°F) [RH = 82%]
Pressure (altimeter): 30.05 inches Hg (1017.7 mb)
[Sea-level pressure: 1017.3 mb]
Winds: calm
Visibility: 10 or more miles (16+ km)
Ceiling: at least 12,000 feet AGL
Clouds: sky clear below 12,000 feet AGL
Present Weather: automated observation with no human augmentation;
there may or may not be significant weather present at this time
KGIF 160753Z AUTO 00000KT 10SM CLR 27/23 A3005 RMK AO2 SLP173 T02670233

Conditions at: KGIF observed 16 July 2018  06:53 UTC
Temperature: 26.7°C (80°F)
Dewpoint: 23.9°C (75°F) [RH = 85%]
Pressure (altimeter): 30.07 inches Hg (1018.4 mb)
[Sea-level pressure: 1017.8 mb]
Winds: calm
Visibility: 10 or more miles (16+ km)
Ceiling: at least 12,000 feet AGL
Clouds: scattered clouds at 4900 feet AGL
Present Weather: automated observation with no human augmentation;
there may or may not be significant weather present at this time
KGIF 160653Z AUTO 00000KT 10SM SCT049 27/24 A3007 RMK AO2 SLP178 T02670239

Conditions at: KGIF observed 16 July 2018  05:53 UTC
Temperature: 27.2°C (81°F)
Dewpoint: 23.9°C (75°F) [RH = 82%]
Pressure (altimeter): 30.07 inches Hg (1018.4 mb)
[Sea-level pressure: 1018.1 mb]
Winds: calm
Visibility: 10 or more miles (16+ km)
Ceiling: at least 12,000 feet AGL
Clouds: sky clear below 12,000 feet AGL
Present Weather: automated observation with no human augmentation;
there may or may not be significant weather present at this time
KGIF 160553Z AUTO 00000KT 10SM CLR 27/24 A3007 RMK AO2 LTG DSNT N AND NE SLP181 60000 T02720239 10300 20261 58009

Conditions at: KGIF observed 16 July 2018  04:53 UTC
Temperature: 27.2°C (81°F)
Dewpoint: 23.3°C (74°F) [RH = 79%]
Pressure (altimeter): 30.09 inches Hg (1019.0 mb)
[Sea-level pressure: 1018.5 mb]
Winds: from the NE (40 degrees) at 3 MPH (3 knots; 1.6 m/s)
Visibility: 10 or more miles (16+ km)
Ceiling: 5500 feet AGL
Clouds: broken clouds at 5500 feet AGL
Present Weather: automated observation with no human augmentation;
there may or may not be significant weather present at this time
KGIF 160453Z AUTO 04003KT 10SM BKN055 27/23 A3009 RMK AO2 LTG DSNT N AND NE RAB0358E15 SLP185 P0000 T02720233 403500244

Conditions at: KGIF observed 16 July 2018  04:16 UTC
Temperature: 27.2°C (81°F)
Dewpoint: 24.4°C (76°F) [RH = 85%]
Pressure (altimeter): 30.10 inches Hg (1019.4 mb)
Winds: from the NE (50 degrees) at 5 MPH (4 knots; 2.1 m/s)
Visibility: 10 or more miles (16+ km)
Ceiling: 5000 feet AGL
Clouds: broken clouds at 5000 feet AGL
overcast cloud deck at 10000 feet AGL
Present Weather: automated observation with no human augmentation;
there may or may not be significant weather present at this time
KGIF 160416Z AUTO 05004KT 10SM BKN050 OVC100 27/24 A3010 RMK AO2 LTG DSNT NE RAB0358E15 P0000 T02720244

Conditions at: KGIF observed 16 July 2018  03:53 UTC
Temperature: 28.3°C (83°F)
Dewpoint: 23.9°C (75°F) [RH = 77%]
Pressure (altimeter): 30.10 inches Hg (1019.4 mb)
[Sea-level pressure: 1018.9 mb]
Winds: from the ENE (70 degrees) at 7 MPH (6 knots; 3.1 m/s)
Visibility: 10 or more miles (16+ km)
Ceiling: 5500 feet AGL
Clouds: broken clouds at 5500 feet AGL
overcast cloud deck at 10000 feet AGL
Present Weather: VCTS  (thunderstorm in vicinity)
KGIF 160353Z AUTO 07006KT 10SM VCTS BKN055 OVC100 28/24 A3010 RMK AO2 LTG DSNT NE-S TSB21E46 SLP189 T02830239

Conditions at: KGIF observed 16 July 2018  03:27 UTC
Temperature: 28.3°C (83°F)
Dewpoint: 23.3°C (74°F) [RH = 74%]
Pressure (altimeter): 30.10 inches Hg (1019.4 mb)
Winds: from the NE (40 degrees) at 3 MPH (3 knots; 1.6 m/s)
Visibility: 10 or more miles (16+ km)
Ceiling: 11000 feet AGL
Clouds: few clouds at 4600 feet AGL
scattered clouds at 7500 feet AGL
broken clouds at 11000 feet AGL
Present Weather: TS  (thunderstorm)
KGIF 160327Z AUTO 04003KT 10SM TS FEW046 SCT075 BKN110 28/23 A3010 RMK AO2 LTG DSNT S TSB21 T02830233

Conditions at: KGIF observed 16 July 2018  03:15 UTC
Temperature: 28.3°C (83°F)
Dewpoint: 23.3°C (74°F) [RH = 74%]
Pressure (altimeter): 30.09 inches Hg (1019.0 mb)
Winds: from the NNE (30 degrees) at 3 MPH (3 knots; 1.6 m/s)
Visibility: 10 or more miles (16+ km)
Ceiling: 7000 feet AGL
Clouds: scattered clouds at 4600 feet AGL
broken clouds at 7000 feet AGL
Present Weather: automated observation with no human augmentation;
there may or may not be significant weather present at this time
KGIF 160315Z AUTO 03003KT 10SM SCT046 BKN070 28/23 A3009 RMK AO2 LTG DSNT NE AND S T02830233

Conditions at: KGIF observed 16 July 2018  03:00 UTC
Temperature: 28.3°C (83°F)
Dewpoint: 23.3°C (74°F) [RH = 74%]
Pressure (altimeter): 30.09 inches Hg (1019.0 mb)
Winds: from the N (10 degrees) at 6 MPH (5 knots; 2.6 m/s)
Visibility: 10 or more miles (16+ km)
Ceiling: 6500 feet AGL
Clouds: broken clouds at 6500 feet AGL
Present Weather: VCTS  (thunderstorm in vicinity)
KGIF 160300Z AUTO 01005KT 10SM VCTS BKN065 28/23 A3009 RMK AO2 LTG DSNT NE T02830233

Conditions at: KGIF observed 16 July 2018  02:53 UTC
Temperature: 28.3°C (83°F)
Dewpoint: 23.3°C (74°F) [RH = 74%]
Pressure (altimeter): 30.08 inches Hg (1018.7 mb)
[Sea-level pressure: 1018.3 mb]
Winds: from the N (360 degrees) at 5 MPH (4 knots; 2.1 m/s)
Visibility: 10 or more miles (16+ km)
Ceiling: 6000 feet AGL
Clouds: broken clouds at 6000 feet AGL
broken clouds at 7000 feet AGL
Present Weather: automated observation with no human augmentation;
there may or may not be significant weather present at this time
KGIF 160253Z AUTO 36004KT 10SM BKN060 BKN070 28/23 A3008 RMK AO2 LTG DSNT NE SLP183 T02830233 51022

Conditions at: KGIF observed 16 July 2018  01:53 UTC
Temperature: 26.7°C (80°F)
Dewpoint: 23.9°C (75°F) [RH = 85%]
Pressure (altimeter): 30.06 inches Hg (1018.0 mb)
[Sea-level pressure: 1017.8 mb]
Winds: from the N (350 degrees) at 6 MPH (5 knots; 2.6 m/s)
Visibility: 10 or more miles (16+ km)
Ceiling: 5000 feet AGL
Clouds: broken clouds at 5000 feet AGL
broken clouds at 6000 feet AGL
overcast cloud deck at 8000 feet AGL
Present Weather: automated observation with no human augmentation;
there may or may not be significant weather present at this time
KGIF 160153Z AUTO 35005KT 10SM BKN050 BKN060 OVC080 27/24 A3006 RMK AO2 LTG DSNT NE AND E SLP178 T02670239

Conditions at: KGIF observed 16 July 2018  00:53 UTC
Temperature: 27.2°C (81°F)
Dewpoint: 23.3°C (74°F) [RH = 79%]
Pressure (altimeter): 30.04 inches Hg (1017.4 mb)
[Sea-level pressure: 1017.1 mb]
Winds: from the NW (310 degrees) at 3 MPH (3 knots; 1.6 m/s)
Visibility: 10 or more miles (16+ km)
Ceiling: at least 12,000 feet AGL
Clouds: few clouds at 6500 feet AGL
Present Weather: VCTS  (thunderstorm in vicinity)
KGIF 160053Z AUTO 31003KT 10SM VCTS FEW065 27/23 A3004 RMK AO2 SLP171 T02720233

Conditions at: KGIF observed 16 July 2018  00:07 UTC
Temperature: 28.3°C (83°F)
Dewpoint: 22.8°C (73°F) [RH = 72%]
Pressure (altimeter): 30.03 inches Hg (1017.0 mb)
Winds: from the NNW (340 degrees) at 5 MPH (4 knots; 2.1 m/s)
Visibility: 10 or more miles (16+ km)
Ceiling: at least 12,000 feet AGL
Clouds: sky clear below 12,000 feet AGL
Present Weather: automated observation with no human augmentation;
there may or may not be significant weather present at this time
KGIF 160007Z AUTO 34004KT 10SM CLR 28/23 A3003 RMK AO2 LTG DSNT S AND SW T02830228

Conditions at: KGIF observed 15 July 2018  23:53 UTC
Temperature: 30.0°C (86°F)
Dewpoint: 22.8°C (73°F) [RH = 65%]
Pressure (altimeter): 30.02 inches Hg (1016.7 mb)
[Sea-level pressure: 1016.2 mb]
Winds: from the NNW (330 degrees) at 5 MPH (4 knots; 2.1 m/s)
Visibility: 10 or more miles (16+ km)
Ceiling: at least 12,000 feet AGL
Clouds: sky clear below 12,000 feet AGL
Present Weather: VCTS  (thunderstorm in vicinity)
KGIF 152353Z AUTO 33004KT 10SM VCTS CLR 30/23 A3002 RMK AO2 LTG DSNT S AND SW SLP162 T03000228 10350 20283 56003

Conditions at: KGIF observed 15 July 2018  23:42 UTC
Temperature: 29.4°C (85°F)
Dewpoint: 22.2°C (72°F) [RH = 65%]
Pressure (altimeter): 30.02 inches Hg (1016.7 mb)
Winds: from the NW (320 degrees) at 7 MPH (6 knots; 3.1 m/s)
Visibility: 10 or more miles (16+ km)
Ceiling: at least 12,000 feet AGL
Clouds: sky clear below 12,000 feet AGL
Present Weather: VCTS  (thunderstorm in vicinity)
KGIF 152342Z AUTO 32006KT 10SM VCTS CLR 29/22 A3002 RMK AO2 LTG DSNT S AND SW T02940222

Conditions at: KGIF observed 15 July 2018  22:53 UTC
Temperature: 30.6°C (87°F)
Dewpoint: 22.8°C (73°F) [RH = 63%]
Pressure (altimeter): 30.02 inches Hg (1016.7 mb)
[Sea-level pressure: 1016.3 mb]
Winds: from the NW (320 degrees) at 12 MPH (10 knots; 5.2 m/s)
Visibility: 10 or more miles (16+ km)
Ceiling: at least 12,000 feet AGL
Clouds: sky clear below 12,000 feet AGL
Present Weather: automated observation with no human augmentation;
there may or may not be significant weather present at this time
KGIF 152253Z AUTO 32010KT 10SM CLR 31/23 A3002 RMK AO2 SLP163 T03060228

Conditions at: KGIF observed 15 July 2018  21:53 UTC
Temperature: 32.8°C (91°F)
Dewpoint: 21.7°C (71°F) [RH = 52%]
Pressure (altimeter): 30.02 inches Hg (1016.7 mb)
[Sea-level pressure: 1016.1 mb]
Winds: from the WNW (300 degrees) at 8 MPH (7 knots; 3.6 m/s)
Visibility: 10 or more miles (16+ km)
Ceiling: at least 12,000 feet AGL
Clouds: sky clear below 12,000 feet AGL
Present Weather: automated observation with no human augmentation;
there may or may not be significant weather present at this time
KGIF 152153Z AUTO 30007KT 10SM CLR 33/22 A3002 RMK AO2 LTG DSNT SE SLP161 T03280217

Conditions at: KGIF observed 15 July 2018  20:53 UTC
Temperature: 34.4°C (94°F)
Dewpoint: 17.2°C (63°F) [RH = 36%]
Pressure (altimeter): 30.03 inches Hg (1017.0 mb)
[Sea-level pressure: 1016.4 mb]
Winds: from the SW (230 degrees) at 6 MPH (5 knots; 2.6 m/s)
Visibility: 10 or more miles (16+ km)
Ceiling: at least 12,000 feet AGL
Clouds: sky clear below 12,000 feet AGL
Present Weather: automated observation with no human augmentation;
there may or may not be significant weather present at this time
KGIF 152053Z AUTO 23005KT 10SM CLR 34/17 A3003 RMK AO2 SLP164 T03440172 56016

Conditions at: KGIF observed 15 July 2018  19:53 UTC
Temperature: 33.9°C (93°F)
Dewpoint: 20.0°C (68°F) [RH = 44%]
Pressure (altimeter): 30.03 inches Hg (1017.0 mb)
[Sea-level pressure: 1016.6 mb]
Winds: from the SSE (160 degrees) at 5 MPH (4 knots; 2.1 m/s)
Visibility: 10 or more miles (16+ km)
Ceiling: at least 12,000 feet AGL
Clouds: scattered clouds at 6000 feet AGL
Present Weather: automated observation with no human augmentation;
there may or may not be significant weather present at this time
KGIF 151953Z AUTO 16004KT 10SM SCT060 34/20 A3003 RMK AO2 LTG DSNT W SLP166 T03390200

Conditions at: KGIF observed 15 July 2018  18:53 UTC
Temperature: 35.0°C (95°F)
Dewpoint: 20.0°C (68°F) [RH = 42%]
Pressure (altimeter): 30.06 inches Hg (1018.0 mb)
[Sea-level pressure: 1017.6 mb]
Winds: variable direction winds at 7 MPH (6 knots; 3.1 m/s)
Visibility: 10 or more miles (16+ km)
Ceiling: at least 12,000 feet AGL
Clouds: sky clear below 12,000 feet AGL
Present Weather: automated observation with no human augmentation;
there may or may not be significant weather present at this time
KGIF 151853Z AUTO VRB06KT 10SM CLR 35/20 A3006 RMK AO2 LTG DSNT W SLP176 T03500200

Conditions at: KGIF observed 15 July 2018  17:53 UTC
Temperature: 33.3°C (92°F)
Dewpoint: 21.1°C (70°F) [RH = 49%]
Pressure (altimeter): 30.07 inches Hg (1018.4 mb)
[Sea-level pressure: 1018.1 mb]
Winds: calm
Visibility: 10 or more miles (16+ km)
Ceiling: at least 12,000 feet AGL
Clouds: few clouds at 4500 feet AGL
Present Weather: automated observation with no human augmentation;
there may or may not be significant weather present at this time
KGIF 151753Z AUTO 00000KT 10SM FEW045 33/21 A3007 RMK AO2 SLP181 T03330211 10344 20261 58008

Conditions at: KGIF observed 15 July 2018  16:53 UTC
Temperature: 33.3°C (92°F)
Dewpoint: 20.6°C (69°F) [RH = 47%]
Pressure (altimeter): 30.09 inches Hg (1019.0 mb)
[Sea-level pressure: 1018.7 mb]
Winds: calm
Visibility: 10 or more miles (16+ km)
Ceiling: at least 12,000 feet AGL
Clouds: sky clear below 12,000 feet AGL
Present Weather: automated observation with no human augmentation;
there may or may not be significant weather present at this time
KGIF 151653Z AUTO 00000KT 10SM CLR 33/21 A3009 RMK AO2 SLP187 T03330206

Conditions at: KGIF observed 15 July 2018  15:53 UTC
Temperature: 31.7°C (89°F)
Dewpoint: 22.2°C (72°F) [RH = 57%]
Pressure (altimeter): 30.10 inches Hg (1019.4 mb)
[Sea-level pressure: 1018.8 mb]
Winds: variable direction winds at 3 MPH (3 knots; 1.6 m/s)
Visibility: 10 or more miles (16+ km)
Ceiling: at least 12,000 feet AGL
Clouds: few clouds at 3300 feet AGL
Present Weather: automated observation with no human augmentation;
there may or may not be significant weather present at this time
KGIF 151553Z AUTO VRB03KT 10SM FEW033 32/22 A3010 RMK AO2 SLP188 T03170222

Conditions at: KGIF observed 15 July 2018  14:53 UTC
Temperature: 30.0°C (86°F)
Dewpoint: 23.3°C (74°F) [RH = 67%]
Pressure (altimeter): 30.10 inches Hg (1019.4 mb)
[Sea-level pressure: 1018.9 mb]
Winds: calm
Visibility: 10 or more miles (16+ km)
Ceiling: at least 12,000 feet AGL
Clouds: sky clear below 12,000 feet AGL
Present Weather: automated observation with no human augmentation;
there may or may not be significant weather present at this time
KGIF 151453Z AUTO 00000KT 10SM CLR 30/23 A3010 RMK AO2 SLP189 T03000233 50006

Conditions at: KGIF observed 15 July 2018  13:53 UTC
Temperature: 28.9°C (84°F)
Dewpoint: 23.3°C (74°F) [RH = 72%]
Pressure (altimeter): 30.10 inches Hg (1019.4 mb)
[Sea-level pressure: 1019.1 mb]
Winds: calm
Visibility: 10 or more miles (16+ km)
Ceiling: at least 12,000 feet AGL
Clouds: sky clear below 12,000 feet AGL
Present Weather: automated observation with no human augmentation;
there may or may not be significant weather present at this time
KGIF 151353Z AUTO 00000KT 10SM CLR 29/23 A3010 RMK AO2 SLP191 T02890233

Conditions at: KGIF observed 15 July 2018  12:53 UTC
Temperature: 27.8°C (82°F)
Dewpoint: 23.9°C (75°F) [RH = 79%]
Pressure (altimeter): 30.09 inches Hg (1019.0 mb)
[Sea-level pressure: 1018.5 mb]
Winds: from the SW (230 degrees) at 3 MPH (3 knots; 1.6 m/s)
Visibility: 10 or more miles (16+ km)
Ceiling: at least 12,000 feet AGL
Clouds: sky clear below 12,000 feet AGL
Present Weather: automated observation with no human augmentation;
there may or may not be significant weather present at this time
KGIF 151253Z AUTO 23003KT 10SM CLR 28/24 A3009 RMK AO2 SLP185 T02780239

Conditions at: KGIF observed 15 July 2018  11:53 UTC
Temperature: 26.1°C (79°F)
Dewpoint: 23.9°C (75°F) [RH = 88%]
Pressure (altimeter): 30.08 inches Hg (1018.7 mb)
[Sea-level pressure: 1018.4 mb]
Winds: calm
Visibility: 10 or more miles (16+ km)
Ceiling: at least 12,000 feet AGL
Clouds: sky clear below 12,000 feet AGL
Present Weather: automated observation with no human augmentation;
there may or may not be significant weather present at this time
KGIF 151153Z AUTO 00000KT 10SM CLR 26/24 A3008 RMK AO2 SLP184 T02610239 10261 20244 53007

Conditions at: KGIF observed 15 July 2018  10:53 UTC
Temperature: 24.4°C (76°F)
Dewpoint: 23.3°C (74°F) [RH = 94%]
Pressure (altimeter): 30.06 inches Hg (1018.0 mb)
[Sea-level pressure: 1017.8 mb]
Winds: calm
Visibility: 10 or more miles (16+ km)
Ceiling: at least 12,000 feet AGL
Clouds: sky clear below 12,000 feet AGL
Present Weather: automated observation with no human augmentation;
there may or may not be significant weather present at this time
KGIF 151053Z AUTO 00000KT 10SM CLR 24/23 A3006 RMK AO2 SLP178 T02440233

Conditions at: KGIF observed 15 July 2018  09:53 UTC
Temperature: 25.0°C (77°F)
Dewpoint: 23.3°C (74°F) [RH = 90%]
Pressure (altimeter): 30.05 inches Hg (1017.7 mb)
[Sea-level pressure: 1017.4 mb]
Winds: calm
Visibility: 10 or more miles (16+ km)
Ceiling: at least 12,000 feet AGL
Clouds: sky clear below 12,000 feet AGL
Present Weather: automated observation with no human augmentation;
there may or may not be significant weather present at this time
KGIF 150953Z AUTO 00000KT 10SM CLR 25/23 A3005 RMK AO2 SLP174 T02500233

Conditions at: KGIF observed 15 July 2018  08:53 UTC
Temperature: 25.0°C (77°F)
Dewpoint: 23.3°C (74°F) [RH = 90%]
Pressure (altimeter): 30.06 inches Hg (1018.0 mb)
[Sea-level pressure: 1017.6 mb]
Winds: calm
Visibility: 10 or more miles (16+ km)
Ceiling: at least 12,000 feet AGL
Clouds: sky clear below 12,000 feet AGL
Present Weather: automated observation with no human augmentation;
there may or may not be significant weather present at this time
KGIF 150853Z AUTO 00000KT 10SM CLR 25/23 A3006 RMK AO2 SLP176 T02500233 56004

Conditions at: KGIF observed 15 July 2018  07:53 UTC
Temperature: 25.0°C (77°F)
Dewpoint: 23.3°C (74°F) [RH = 90%]
Pressure (altimeter): 30.06 inches Hg (1018.0 mb)
[Sea-level pressure: 1017.6 mb]
Winds: from the SSW (210 degrees) at 3 MPH (3 knots; 1.6 m/s)
Visibility: 10 or more miles (16+ km)
Ceiling: at least 12,000 feet AGL
Clouds: sky clear below 12,000 feet AGL
Present Weather: automated observation with no human augmentation;
there may or may not be significant weather present at this time
KGIF 150753Z AUTO 21003KT 10SM CLR 25/23 A3006 RMK AO2 SLP176 T02500233

Conditions at: KGIF observed 15 July 2018  06:53 UTC
Temperature: 25.0°C (77°F)
Dewpoint: 23.3°C (74°F) [RH = 90%]
Pressure (altimeter): 30.06 inches Hg (1018.0 mb)
[Sea-level pressure: 1017.7 mb]
Winds: from the SSW (210 degrees) at 5 MPH (4 knots; 2.1 m/s)
Visibility: 10 or more miles (16+ km)
Ceiling: at least 12,000 feet AGL
Clouds: sky clear below 12,000 feet AGL
Present Weather: automated observation with no human augmentation;
there may or may not be significant weather present at this time
KGIF 150653Z AUTO 21004KT 10SM CLR 25/23 A3006 RMK AO2 SLP177 T02500233

Conditions at: KGIF observed 15 July 2018  05:53 UTC
Temperature: 26.1°C (79°F)
Dewpoint: 23.3°C (74°F) [RH = 85%]
Pressure (altimeter): 30.07 inches Hg (1018.4 mb)
[Sea-level pressure: 1018.0 mb]
Winds: calm
Visibility: 10 or more miles (16+ km)
Ceiling: at least 12,000 feet AGL
Clouds: sky clear below 12,000 feet AGL
Present Weather: automated observation with no human augmentation;
there may or may not be significant weather present at this time
KGIF 150553Z AUTO 00000KT 10SM CLR 26/23 A3007 RMK AO2 SLP180 T02610233 10283 20256 58009

Conditions at: KGIF observed 15 July 2018  04:53 UTC
Temperature: 26.7°C (80°F)
Dewpoint: 23.3°C (74°F) [RH = 82%]
Pressure (altimeter): 30.09 inches Hg (1019.0 mb)
[Sea-level pressure: 1018.4 mb]
Winds: calm
Visibility: 10 or more miles (16+ km)
Ceiling: at least 12,000 feet AGL
Clouds: sky clear below 12,000 feet AGL
Present Weather: automated observation with no human augmentation;
there may or may not be significant weather present at this time
KGIF 150453Z AUTO 00000KT 10SM CLR 27/23 A3009 RMK AO2 SLP184 T02670233 403500239